sensor_id;sensor_type;location;lat;lon;timestamp;P1;durP1;ratioP1;P2;durP2;ratioP2
43154;SDS011;34212;51.018;13.586;2023-05-13T05:04:08;4.72;;;3.50;;
43154;SDS011;34212;51.018;13.586;2023-05-13T05:09:12;5.40;;;3.53;;
43154;SDS011;34212;51.018;13.586;2023-05-13T05:19:42;3.60;;;3.10;;
43154;SDS011;34212;51.018;13.586;2023-05-13T05:24:44;4.32;;;3.47;;
43154;SDS011;34212;51.018;13.586;2023-05-13T05:29:48;5.03;;;3.90;;
43154;SDS011;34212;51.018;13.586;2023-05-13T05:34:49;6.32;;;3.70;;
43154;SDS011;34212;51.018;13.586;2023-05-13T05:39:51;7.45;;;4.00;;
43154;SDS011;34212;51.018;13.586;2023-05-13T05:44:52;5.07;;;3.80;;
43154;SDS011;34212;51.018;13.586;2023-05-13T05:49:54;5.63;;;3.53;;
43154;SDS011;34212;51.018;13.586;2023-05-13T05:54:56;5.38;;;4.13;;
43154;SDS011;34212;51.018;13.586;2023-05-13T05:59:57;7.60;;;3.90;;
43154;SDS011;34212;51.018;13.586;2023-05-13T06:04:59;7.53;;;3.97;;
43154;SDS011;34212;51.018;13.586;2023-05-13T06:10:01;5.63;;;4.23;;
43154;SDS011;34212;51.018;13.586;2023-05-13T06:15:04;6.45;;;4.60;;
43154;SDS011;34212;51.018;13.586;2023-05-13T06:20:09;7.15;;;4.35;;
43154;SDS011;34212;51.018;13.586;2023-05-13T06:25:11;9.18;;;4.45;;
43154;SDS011;34212;51.018;13.586;2023-05-13T06:30:14;7.70;;;3.65;;
43154;SDS011;34212;51.018;13.586;2023-05-13T06:35:16;4.90;;;3.93;;
43154;SDS011;34212;51.018;13.586;2023-05-13T06:40:18;5.75;;;4.68;;
43154;SDS011;34212;51.018;13.586;2023-05-13T06:50:24;5.95;;;4.00;;
43154;SDS011;34212;51.018;13.586;2023-05-13T06:55:25;4.97;;;3.80;;
43154;SDS011;34212;51.018;13.586;2023-05-13T07:00:27;7.97;;;4.32;;
43154;SDS011;34212;51.018;13.586;2023-05-13T07:05:29;6.80;;;3.60;;
43154;SDS011;34212;51.018;13.586;2023-05-13T07:10:31;3.63;;;3.22;;
43154;SDS011;34212;51.018;13.586;2023-05-13T07:15:34;4.32;;;3.53;;
43154;SDS011;34212;51.018;13.586;2023-05-13T07:20:35;4.90;;;3.47;;
43154;SDS011;34212;51.018;13.586;2023-05-13T07:25:37;4.13;;;3.43;;
43154;SDS011;34212;51.018;13.586;2023-05-13T07:30:39;3.25;;;2.95;;
43154;SDS011;34212;51.018;13.586;2023-05-13T07:35:42;4.25;;;3.65;;
43154;SDS011;34212;51.018;13.586;2023-05-13T07:40:43;4.07;;;3.07;;
43154;SDS011;34212;51.018;13.586;2023-05-13T07:45:45;3.50;;;2.80;;
43154;SDS011;34212;51.018;13.586;2023-05-13T07:50:46;4.65;;;3.20;;
43154;SDS011;34212;51.018;13.586;2023-05-13T07:55:48;3.97;;;3.10;;
43154;SDS011;34212;51.018;13.586;2023-05-13T08:00:49;5.57;;;3.03;;
43154;SDS011;34212;51.018;13.586;2023-05-13T08:05:51;6.72;;;3.00;;
43154;SDS011;34212;51.018;13.586;2023-05-13T08:10:52;3.50;;;2.83;;
43154;SDS011;34212;51.018;13.586;2023-05-13T08:15:54;11.63;;;3.13;;
43154;SDS011;34212;51.018;13.586;2023-05-13T08:20:56;9.95;;;3.47;;
43154;SDS011;34212;51.018;13.586;2023-05-13T08:25:57;3.53;;;2.70;;
43154;SDS011;34212;51.018;13.586;2023-05-13T08:30:59;3.87;;;3.47;;
43154;SDS011;34212;51.018;13.586;2023-05-13T08:36:02;4.07;;;2.90;;
43154;SDS011;34212;51.018;13.586;2023-05-13T08:41:04;3.92;;;3.53;;
43154;SDS011;34212;51.018;13.586;2023-05-13T08:46:10;4.85;;;3.28;;
43154;SDS011;34212;51.018;13.586;2023-05-13T08:51:12;5.07;;;3.40;;
43154;SDS011;34212;51.018;13.586;2023-05-13T08:56:14;4.10;;;3.07;;
43154;SDS011;34212;51.018;13.586;2023-05-13T09:01:15;4.50;;;3.80;;
43154;SDS011;34212;51.018;13.586;2023-05-13T09:06:17;6.00;;;3.95;;
43154;SDS011;34212;51.018;13.586;2023-05-13T09:11:18;7.13;;;3.40;;
43154;SDS011;34212;51.018;13.586;2023-05-13T09:16:22;5.28;;;3.85;;
43154;SDS011;34212;51.018;13.586;2023-05-13T09:21:27;5.30;;;3.55;;
43154;SDS011;34212;51.018;13.586;2023-05-13T09:26:30;4.07;;;3.40;;
43154;SDS011;34212;51.018;13.586;2023-05-13T09:31:32;7.40;;;3.43;;
43154;SDS011;34212;51.018;13.586;2023-05-13T09:36:34;7.60;;;3.83;;
43154;SDS011;34212;51.018;13.586;2023-05-13T09:41:35;4.50;;;3.60;;
43154;SDS011;34212;51.018;13.586;2023-05-13T09:46:37;4.40;;;3.17;;
43154;SDS011;34212;51.018;13.586;2023-05-13T09:51:38;4.95;;;3.53;;
43154;SDS011;34212;51.018;13.586;2023-05-13T09:56:40;8.53;;;3.60;;
43154;SDS011;34212;51.018;13.586;2023-05-13T10:01:41;4.90;;;3.90;;
43154;SDS011;34212;51.018;13.586;2023-05-13T10:11:45;14.20;;;3.93;;
43154;SDS011;34212;51.018;13.586;2023-05-13T10:16:48;4.57;;;3.13;;
43154;SDS011;34212;51.018;13.586;2023-05-13T10:21:51;5.93;;;3.20;;
43154;SDS011;34212;51.018;13.586;2023-05-13T10:26:54;9.68;;;4.00;;
43154;SDS011;34212;51.018;13.586;2023-05-13T10:31:57;5.57;;;3.30;;
43154;SDS011;34212;51.018;13.586;2023-05-13T10:37:09;6.32;;;3.03;;
43154;SDS011;34212;51.018;13.586;2023-05-13T10:42:32;5.35;;;3.38;;
43154;SDS011;34212;51.018;13.586;2023-05-13T10:47:39;3.83;;;3.20;;
43154;SDS011;34212;51.018;13.586;2023-05-13T10:52:45;3.35;;;2.90;;
43154;SDS011;34212;51.018;13.586;2023-05-13T11:03:28;3.58;;;2.92;;
43154;SDS011;34212;51.018;13.586;2023-05-13T11:08:37;4.05;;;3.00;;
43154;SDS011;34212;51.018;13.586;2023-05-13T11:13:43;75.57;;;7.93;;
43154;SDS011;34212;51.018;13.586;2023-05-13T11:18:44;4.57;;;3.00;;
43154;SDS011;34212;51.018;13.586;2023-05-13T11:24:03;5.22;;;2.58;;
43154;SDS011;34212;51.018;13.586;2023-05-13T11:29:06;6.43;;;2.80;;
43154;SDS011;34212;51.018;13.586;2023-05-13T11:34:11;3.35;;;2.83;;
43154;SDS011;34212;51.018;13.586;2023-05-13T11:39:15;4.57;;;2.53;;
43154;SDS011;34212;51.018;13.586;2023-05-13T11:44:19;4.88;;;2.35;;
43154;SDS011;34212;51.018;13.586;2023-05-13T11:49:43;3.67;;;2.50;;
43154;SDS011;34212;51.018;13.586;2023-05-13T12:04:59;6.35;;;2.47;;
43154;SDS011;34212;51.018;13.586;2023-05-13T12:10:05;2.90;;;2.53;;
43154;SDS011;34212;51.018;13.586;2023-05-13T12:15:11;3.05;;;2.75;;
43154;SDS011;34212;51.018;13.586;2023-05-13T12:20:15;2.65;;;2.03;;
43154;SDS011;34212;51.018;13.586;2023-05-13T12:30:37;2.75;;;2.22;;
43154;SDS011;34212;51.018;13.586;2023-05-13T12:35:40;3.45;;;2.50;;
43154;SDS011;34212;51.018;13.586;2023-05-13T12:40:43;2.85;;;2.25;;
43154;SDS011;34212;51.018;13.586;2023-05-13T12:45:50;2.42;;;2.13;;
43154;SDS011;34212;51.018;13.586;2023-05-13T12:50:54;2.50;;;1.98;;
43154;SDS011;34212;51.018;13.586;2023-05-13T12:55:56;5.00;;;2.15;;
43154;SDS011;34212;51.018;13.586;2023-05-13T13:00:58;3.42;;;2.25;;
43154;SDS011;34212;51.018;13.586;2023-05-13T13:05:59;2.35;;;2.13;;
43154;SDS011;34212;51.018;13.586;2023-05-13T13:11:01;3.75;;;2.45;;
43154;SDS011;34212;51.018;13.586;2023-05-13T13:16:04;2.55;;;2.33;;
43154;SDS011;34212;51.018;13.586;2023-05-13T13:26:07;3.00;;;2.50;;
43154;SDS011;34212;51.018;13.586;2023-05-13T13:31:09;5.28;;;2.25;;
43154;SDS011;34212;51.018;13.586;2023-05-13T13:36:12;3.00;;;2.20;;
43154;SDS011;34212;51.018;13.586;2023-05-13T13:41:13;2.75;;;2.35;;
43154;SDS011;34212;51.018;13.586;2023-05-13T13:46:15;3.78;;;2.53;;
43154;SDS011;34212;51.018;13.586;2023-05-13T13:51:16;2.92;;;2.22;;
43154;SDS011;34212;51.018;13.586;2023-05-13T13:56:18;3.78;;;2.28;;
43154;SDS011;34212;51.018;13.586;2023-05-13T14:01:20;3.80;;;2.60;;
43154;SDS011;34212;51.018;13.586;2023-05-13T14:06:21;4.85;;;2.33;;
43154;SDS011;34212;51.018;13.586;2023-05-13T14:11:23;4.13;;;2.63;;
43154;SDS011;34212;51.018;13.586;2023-05-13T14:16:24;2.95;;;2.30;;
43154;SDS011;34212;51.018;13.586;2023-05-13T14:21:26;3.80;;;2.55;;
43154;SDS011;34212;51.018;13.586;2023-05-13T14:26:28;6.63;;;2.53;;
43154;SDS011;34212;51.018;13.586;2023-05-13T14:31:30;2.97;;;2.67;;
43154;SDS011;34212;51.018;13.586;2023-05-13T14:36:32;4.18;;;2.78;;
43154;SDS011;34212;51.018;13.586;2023-05-13T14:41:33;3.10;;;2.80;;
43154;SDS011;34212;51.018;13.586;2023-05-13T14:46:34;3.63;;;2.57;;
43154;SDS011;34212;51.018;13.586;2023-05-13T14:51:38;4.15;;;2.45;;
43154;SDS011;34212;51.018;13.586;2023-05-13T14:56:39;3.07;;;2.60;;
43154;SDS011;34212;51.018;13.586;2023-05-13T15:01:41;4.78;;;3.13;;
43154;SDS011;34212;51.018;13.586;2023-05-13T15:06:43;4.20;;;2.60;;
43154;SDS011;34212;51.018;13.586;2023-05-13T15:11:44;3.20;;;2.37;;
43154;SDS011;34212;51.018;13.586;2023-05-13T15:16:45;3.00;;;2.23;;
43154;SDS011;34212;51.018;13.586;2023-05-13T15:21:47;3.37;;;2.90;;
43154;SDS011;34212;51.018;13.586;2023-05-13T15:26:48;4.60;;;2.43;;
43154;SDS011;34212;51.018;13.586;2023-05-13T15:31:50;4.13;;;2.58;;
43154;SDS011;34212;51.018;13.586;2023-05-13T15:36:52;2.70;;;2.30;;
43154;SDS011;34212;51.018;13.586;2023-05-13T15:41:53;3.40;;;2.57;;
43154;SDS011;34212;51.018;13.586;2023-05-13T15:46:55;3.20;;;2.60;;
43154;SDS011;34212;51.018;13.586;2023-05-13T15:51:56;3.15;;;2.80;;
43154;SDS011;34212;51.018;13.586;2023-05-13T15:56:58;3.00;;;2.63;;
43154;SDS011;34212;51.018;13.586;2023-05-13T16:07:01;3.72;;;3.17;;
43154;SDS011;34212;51.018;13.586;2023-05-13T16:12:03;3.15;;;2.65;;
43154;SDS011;34212;51.018;13.586;2023-05-13T16:27:40;4.35;;;3.17;;
43154;SDS011;34212;51.018;13.586;2023-05-13T16:32:43;4.22;;;3.33;;
43154;SDS011;34212;51.018;13.586;2023-05-13T16:37:48;5.53;;;3.08;;
43154;SDS011;34212;51.018;13.586;2023-05-13T16:47:51;4.30;;;3.13;;
43154;SDS011;34212;51.018;13.586;2023-05-13T16:52:53;3.23;;;2.70;;
43154;SDS011;34212;51.018;13.586;2023-05-13T16:57:54;4.27;;;3.30;;
43154;SDS011;34212;51.018;13.586;2023-05-13T17:02:56;3.23;;;2.93;;
43154;SDS011;34212;51.018;13.586;2023-05-13T17:07:58;4.07;;;3.38;;
43154;SDS011;34212;51.018;13.586;2023-05-13T17:12:59;4.07;;;2.93;;
43154;SDS011;34212;51.018;13.586;2023-05-13T17:18:01;5.25;;;3.42;;
43154;SDS011;34212;51.018;13.586;2023-05-13T17:23:02;3.70;;;3.20;;
43154;SDS011;34212;51.018;13.586;2023-05-13T17:28:04;3.60;;;3.30;;
43154;SDS011;34212;51.018;13.586;2023-05-13T17:33:08;4.18;;;3.15;;
43154;SDS011;34212;51.018;13.586;2023-05-13T17:38:09;3.50;;;3.20;;
43154;SDS011;34212;51.018;13.586;2023-05-13T17:43:11;3.78;;;2.97;;
43154;SDS011;34212;51.018;13.586;2023-05-13T17:48:12;5.03;;;3.73;;
43154;SDS011;34212;51.018;13.586;2023-05-13T17:53:14;5.78;;;3.97;;
43154;SDS011;34212;51.018;13.586;2023-05-13T17:58:16;6.17;;;3.73;;
43154;SDS011;34212;51.018;13.586;2023-05-13T18:03:17;6.97;;;4.17;;
43154;SDS011;34212;51.018;13.586;2023-05-13T18:08:19;4.33;;;3.83;;
43154;SDS011;34212;51.018;13.586;2023-05-13T18:13:20;6.53;;;4.87;;
43154;SDS011;34212;51.018;13.586;2023-05-13T18:18:22;6.23;;;5.03;;
43154;SDS011;34212;51.018;13.586;2023-05-13T18:23:23;7.35;;;4.53;;
43154;SDS011;34212;51.018;13.586;2023-05-13T18:28:25;7.05;;;5.80;;
43154;SDS011;34212;51.018;13.586;2023-05-13T18:33:26;9.30;;;8.30;;
43154;SDS011;34212;51.018;13.586;2023-05-13T18:38:30;8.07;;;5.10;;
43154;SDS011;34212;51.018;13.586;2023-05-13T18:43:31;6.60;;;5.50;;
43154;SDS011;34212;51.018;13.586;2023-05-13T18:48:33;5.80;;;5.20;;
43154;SDS011;34212;51.018;13.586;2023-05-13T18:53:34;5.67;;;4.97;;
43154;SDS011;34212;51.018;13.586;2023-05-13T18:58:36;9.07;;;8.10;;
43154;SDS011;34212;51.018;13.586;2023-05-13T19:03:37;10.33;;;5.17;;
43154;SDS011;34212;51.018;13.586;2023-05-13T19:08:39;7.17;;;5.47;;
43154;SDS011;34212;51.018;13.586;2023-05-13T19:13:41;10.43;;;8.63;;
43154;SDS011;34212;51.018;13.586;2023-05-13T19:18:48;8.70;;;6.63;;
43154;SDS011;34212;51.018;13.586;2023-05-13T19:23:49;6.13;;;5.33;;
43154;SDS011;34212;51.018;13.586;2023-05-13T19:28:51;7.90;;;6.57;;
43154;SDS011;34212;51.018;13.586;2023-05-13T19:33:52;7.75;;;6.03;;
43154;SDS011;34212;51.018;13.586;2023-05-13T19:38:54;6.63;;;5.72;;
43154;SDS011;34212;51.018;13.586;2023-05-13T19:43:56;6.43;;;5.82;;
43154;SDS011;34212;51.018;13.586;2023-05-13T19:48:58;8.05;;;5.95;;
43154;SDS011;34212;51.018;13.586;2023-05-13T19:53:59;7.35;;;6.28;;
43154;SDS011;34212;51.018;13.586;2023-05-13T19:59:01;8.43;;;5.75;;
43154;SDS011;34212;51.018;13.586;2023-05-13T20:04:03;6.60;;;5.38;;
43154;SDS011;34212;51.018;13.586;2023-05-13T20:09:05;6.82;;;5.55;;
43154;SDS011;34212;51.018;13.586;2023-05-13T20:14:06;6.78;;;5.28;;
43154;SDS011;34212;51.018;13.586;2023-05-13T20:19:08;8.40;;;6.18;;
43154;SDS011;34212;51.018;13.586;2023-05-13T20:24:10;11.87;;;6.47;;
43154;SDS011;34212;51.018;13.586;2023-05-13T20:29:11;8.40;;;5.18;;
43154;SDS011;34212;51.018;13.586;2023-05-13T20:34:13;10.63;;;6.33;;
43154;SDS011;34212;51.018;13.586;2023-05-13T20:39:15;8.85;;;7.57;;
43154;SDS011;34212;51.018;13.586;2023-05-13T20:44:16;7.28;;;6.40;;
43154;SDS011;34212;51.018;13.586;2023-05-13T20:49:18;7.30;;;6.43;;
43154;SDS011;34212;51.018;13.586;2023-05-13T20:54:19;6.88;;;5.97;;
43154;SDS011;34212;51.018;13.586;2023-05-13T20:59:21;8.82;;;6.80;;
43154;SDS011;34212;51.018;13.586;2023-05-13T21:04:23;9.70;;;6.60;;
43154;SDS011;34212;51.018;13.586;2023-05-13T21:09:25;8.20;;;7.10;;
43154;SDS011;34212;51.018;13.586;2023-05-13T21:14:27;10.00;;;6.50;;
43154;SDS011;34212;51.018;13.586;2023-05-13T21:19:28;9.68;;;6.75;;
43154;SDS011;34212;51.018;13.586;2023-05-13T21:24:31;7.05;;;6.35;;
43154;SDS011;34212;51.018;13.586;2023-05-13T21:29:33;8.32;;;6.75;;
43154;SDS011;34212;51.018;13.586;2023-05-13T21:34:35;8.00;;;6.38;;
43154;SDS011;34212;51.018;13.586;2023-05-13T21:39:36;10.75;;;7.50;;
43154;SDS011;34212;51.018;13.586;2023-05-13T21:44:38;7.20;;;6.45;;
43154;SDS011;34212;51.018;13.586;2023-05-13T21:49:40;7.10;;;6.40;;
43154;SDS011;34212;51.018;13.586;2023-05-13T21:54:42;8.63;;;7.38;;
43154;SDS011;34212;51.018;13.586;2023-05-13T21:59:43;8.30;;;6.68;;
